sensor_id;sensor_type;location;lat;lon;timestamp;pressure;altitude;pressure_sealevel;temperature;humidity
12676;BME280;63820;65.654;21.944;2023-03-03T00:00:52;100031.84;;;-2.03;100.00
12676;BME280;63820;65.654;21.944;2023-03-03T00:03:36;100025.09;;;-2.10;100.00
12676;BME280;63820;65.654;21.944;2023-03-03T00:06:21;100028.47;;;-2.14;100.00
12676;BME280;63820;65.654;21.944;2023-03-03T00:09:05;100027.59;;;-2.07;100.00
12676;BME280;63820;65.654;21.944;2023-03-03T00:11:54;100028.47;;;-2.02;100.00
12676;BME280;63820;65.654;21.944;2023-03-03T00:14:39;100023.38;;;-1.99;100.00
12676;BME280;63820;65.654;21.944;2023-03-03T00:17:28;100026.75;;;-2.01;100.00
12676;BME280;63820;65.654;21.944;2023-03-03T00:23:36;100039.50;;;-2.03;100.00
12676;BME280;63820;65.654;21.944;2023-03-03T00:29:35;100036.97;;;-1.90;100.00
12676;BME280;63820;65.654;21.944;2023-03-03T00:32:25;100037.81;;;-2.02;100.00
12676;BME280;63820;65.654;21.944;2023-03-03T00:35:36;100043.75;;;-2.08;100.00
12676;BME280;63820;65.654;21.944;2023-03-03T00:38:22;100040.38;;;-2.16;100.00
12676;BME280;63820;65.654;21.944;2023-03-03T00:41:33;100038.66;;;-2.20;100.00
12676;BME280;63820;65.654;21.944;2023-03-03T00:44:42;100039.53;;;-2.19;100.00
12676;BME280;63820;65.654;21.944;2023-03-03T00:47:28;100029.31;;;-2.25;100.00
12676;BME280;63820;65.654;21.944;2023-03-03T00:50:33;100031.00;;;-2.35;100.00
12676;BME280;63820;65.654;21.944;2023-03-03T00:53:19;100034.38;;;-2.45;100.00
12676;BME280;63820;65.654;21.944;2023-03-03T00:56:03;100040.28;;;-2.61;100.00
12676;BME280;63820;65.654;21.944;2023-03-03T00:58:48;100037.72;;;-2.63;100.00
12676;BME280;63820;65.654;21.944;2023-03-03T01:01:33;100036.00;;;-2.73;100.00
12676;BME280;63820;65.654;21.944;2023-03-03T01:04:17;100036.00;;;-2.76;100.00
12676;BME280;63820;65.654;21.944;2023-03-03T01:07:01;100035.97;;;-2.84;100.00
12676;BME280;63820;65.654;21.944;2023-03-03T01:09:45;100038.47;;;-2.93;100.00
12676;BME280;63820;65.654;21.944;2023-03-03T01:12:28;100040.94;;;-3.13;100.00
12676;BME280;63820;65.654;21.944;2023-03-03T01:15:14;100028.22;;;-3.19;100.00
12676;BME280;63820;65.654;21.944;2023-03-03T01:17:58;100037.50;;;-3.24;100.00
12676;BME280;63820;65.654;21.944;2023-03-03T01:20:42;100037.47;;;-3.28;100.00
12676;BME280;63820;65.654;21.944;2023-03-03T01:23:27;100029.84;;;-3.28;100.00
12676;BME280;63820;65.654;21.944;2023-03-03T01:26:11;100036.59;;;-3.35;100.00
12676;BME280;63820;65.654;21.944;2023-03-03T01:28:56;100031.47;;;-3.43;100.00
12676;BME280;63820;65.654;21.944;2023-03-03T01:31:40;100031.41;;;-3.53;100.00
12676;BME280;63820;65.654;21.944;2023-03-03T01:34:24;100029.63;;;-3.65;100.00
12676;BME280;63820;65.654;21.944;2023-03-03T01:37:08;100032.06;;;-3.79;100.00
12676;BME280;63820;65.654;21.944;2023-03-03T01:39:54;100034.50;;;-3.92;100.00
12676;BME280;63820;65.654;21.944;2023-03-03T01:42:38;100034.41;;;-4.03;100.00
12676;BME280;63820;65.654;21.944;2023-03-03T01:45:26;100033.50;;;-4.11;100.00
12676;BME280;63820;65.654;21.944;2023-03-03T01:48:18;100014.84;;;-4.18;100.00
12676;BME280;63820;65.654;21.944;2023-03-03T01:51:18;100026.69;;;-4.15;100.00
12676;BME280;63820;65.654;21.944;2023-03-03T01:54:11;100023.28;;;-4.16;100.00
12676;BME280;63820;65.654;21.944;2023-03-03T01:57:00;100025.72;;;-4.31;100.00
12676;BME280;63820;65.654;21.944;2023-03-03T01:59:48;100029.09;;;-4.32;100.00
12676;BME280;63820;65.654;21.944;2023-03-03T02:02:33;100027.44;;;-4.30;100.00
12676;BME280;63820;65.654;21.944;2023-03-03T02:05:18;100025.66;;;-4.37;100.00
12676;BME280;63820;65.654;21.944;2023-03-03T02:08:03;100014.53;;;-4.51;100.00
12676;BME280;63820;65.654;21.944;2023-03-03T02:10:47;100022.00;;;-4.64;100.00
12676;BME280;63820;65.654;21.944;2023-03-03T02:13:32;100023.66;;;-4.69;100.00
12676;BME280;63820;65.654;21.944;2023-03-03T02:16:16;100027.94;;;-4.63;100.00
12676;BME280;63820;65.654;21.944;2023-03-03T02:19:01;100016.88;;;-4.70;100.00
12676;BME280;63820;65.654;21.944;2023-03-03T02:21:45;100020.31;;;-4.65;100.00
12676;BME280;63820;65.654;21.944;2023-03-03T02:27:22;100009.38;;;-4.61;100.00
12676;BME280;63820;65.654;21.944;2023-03-03T02:30:14;100004.31;;;-4.59;100.00
12676;BME280;63820;65.654;21.944;2023-03-03T02:33:00;100001.72;;;-4.64;100.00
12676;BME280;63820;65.654;21.944;2023-03-03T02:35:45;99991.44;;;-4.77;100.00
12676;BME280;63820;65.654;21.944;2023-03-03T02:38:51;99996.47;;;-4.79;100.00
12676;BME280;63820;65.654;21.944;2023-03-03T02:44:44;99981.25;;;-4.79;100.00
12676;BME280;63820;65.654;21.944;2023-03-03T02:47:29;99982.13;;;-4.77;100.00
12676;BME280;63820;65.654;21.944;2023-03-03T02:50:12;99971.00;;;-4.89;100.00
12676;BME280;63820;65.654;21.944;2023-03-03T02:52:57;99965.03;;;-4.95;100.00
12676;BME280;63820;65.654;21.944;2023-03-03T02:55:41;99974.47;;;-4.83;100.00
12676;BME280;63820;65.654;21.944;2023-03-03T02:58:25;99972.78;;;-4.82;100.00
12676;BME280;63820;65.654;21.944;2023-03-03T03:01:09;99971.06;;;-4.85;100.00
12676;BME280;63820;65.654;21.944;2023-03-03T03:03:54;99970.16;;;-4.90;100.00
12676;BME280;63820;65.654;21.944;2023-03-03T03:06:38;99969.25;;;-4.95;100.00
12676;BME280;63820;65.654;21.944;2023-03-03T03:09:24;99959.97;;;-4.93;100.00
12676;BME280;63820;65.654;21.944;2023-03-03T03:12:09;99958.38;;;-4.83;100.00
12676;BME280;63820;65.654;21.944;2023-03-03T03:14:53;99955.97;;;-4.73;100.00
12676;BME280;63820;65.654;21.944;2023-03-03T03:17:37;99956.75;;;-4.77;100.00
12676;BME280;63820;65.654;21.944;2023-03-03T03:20:21;99947.41;;;-4.82;100.00
12676;BME280;63820;65.654;21.944;2023-03-03T03:23:07;99949.88;;;-4.88;100.00
12676;BME280;63820;65.654;21.944;2023-03-03T03:25:51;99948.97;;;-4.95;100.00
12676;BME280;63820;65.654;21.944;2023-03-03T03:28:35;99946.38;;;-5.00;100.00
12676;BME280;63820;65.654;21.944;2023-03-03T03:31:20;99938.63;;;-5.12;100.00
12676;BME280;63820;65.654;21.944;2023-03-03T03:34:04;99938.63;;;-5.13;100.00
12676;BME280;63820;65.654;21.944;2023-03-03T03:36:49;99938.66;;;-5.10;100.00
12676;BME280;63820;65.654;21.944;2023-03-03T03:39:33;99931.13;;;-5.03;100.00
12676;BME280;63820;65.654;21.944;2023-03-03T03:42:17;99927.72;;;-5.06;100.00
12676;BME280;63820;65.654;21.944;2023-03-03T03:45:01;99927.81;;;-4.97;100.00
12676;BME280;63820;65.654;21.944;2023-03-03T03:47:45;99919.44;;;-4.88;100.00
12676;BME280;63820;65.654;21.944;2023-03-03T03:50:30;99921.91;;;-4.96;100.00
12676;BME280;63820;65.654;21.944;2023-03-03T03:53:15;99923.56;;;-4.98;100.00
12676;BME280;63820;65.654;21.944;2023-03-03T03:56:00;99917.69;;;-4.96;100.00
12676;BME280;63820;65.654;21.944;2023-03-03T03:58:45;99912.81;;;-4.74;100.00
12676;BME280;63820;65.654;21.944;2023-03-03T04:01:28;99911.06;;;-4.80;100.00
12676;BME280;63820;65.654;21.944;2023-03-03T04:04:13;99910.28;;;-4.76;100.00
12676;BME280;63820;65.654;21.944;2023-03-03T04:06:57;99911.97;;;-4.75;100.00
12676;BME280;63820;65.654;21.944;2023-03-03T04:09:42;99900.22;;;-4.65;100.00
12676;BME280;63820;65.654;21.944;2023-03-03T04:12:26;99908.72;;;-4.58;100.00
12676;BME280;63820;65.654;21.944;2023-03-03T04:15:12;99910.34;;;-4.67;100.00
12676;BME280;63820;65.654;21.944;2023-03-03T04:17:56;99906.06;;;-4.72;100.00
12676;BME280;63820;65.654;21.944;2023-03-03T04:20:41;99903.44;;;-4.83;100.00
12676;BME280;63820;65.654;21.944;2023-03-03T04:23:25;99888.03;;;-5.01;100.00
12676;BME280;63820;65.654;21.944;2023-03-03T04:26:09;99885.44;;;-5.09;100.00
12676;BME280;63820;65.654;21.944;2023-03-03T04:28:54;99887.84;;;-5.22;100.00
12676;BME280;63820;65.654;21.944;2023-03-03T04:31:38;99894.53;;;-5.31;100.00
12676;BME280;63820;65.654;21.944;2023-03-03T04:34:22;99879.22;;;-5.40;100.00
12676;BME280;63820;65.654;21.944;2023-03-03T04:37:06;99886.03;;;-5.36;100.00
12676;BME280;63820;65.654;21.944;2023-03-03T04:39:50;99882.63;;;-5.38;100.00
12676;BME280;63820;65.654;21.944;2023-03-03T04:42:34;99886.06;;;-5.33;100.00
12676;BME280;63820;65.654;21.944;2023-03-03T04:45:19;99875.84;;;-5.39;100.00
12676;BME280;63820;65.654;21.944;2023-03-03T04:48:03;99868.19;;;-5.43;100.00
12676;BME280;63820;65.654;21.944;2023-03-03T04:50:48;99872.44;;;-5.41;100.00
12676;BME280;63820;65.654;21.944;2023-03-03T04:53:32;99860.56;;;-5.45;100.00
12676;BME280;63820;65.654;21.944;2023-03-03T04:56:16;99852.88;;;-5.52;100.00
12676;BME280;63820;65.654;21.944;2023-03-03T04:58:59;99856.25;;;-5.53;100.00
12676;BME280;63820;65.654;21.944;2023-03-03T05:01:43;99852.81;;;-5.60;100.00
12676;BME280;63820;65.654;21.944;2023-03-03T05:04:29;99850.28;;;-5.60;100.00
12676;BME280;63820;65.654;21.944;2023-03-03T05:07:13;99837.59;;;-5.62;100.00
12676;BME280;63820;65.654;21.944;2023-03-03T05:09:57;99835.16;;;-5.51;100.00
12676;BME280;63820;65.654;21.944;2023-03-03T05:12:42;99837.72;;;-5.49;100.00
12676;BME280;63820;65.654;21.944;2023-03-03T05:15:26;99830.06;;;-5.55;100.00
12676;BME280;63820;65.654;21.944;2023-03-03T05:18:11;99823.97;;;-5.70;100.00
12676;BME280;63820;65.654;21.944;2023-03-03T05:20:55;99823.13;;;-5.70;100.00
12676;BME280;63820;65.654;21.944;2023-03-03T05:23:40;99813.88;;;-5.67;100.00
12676;BME280;63820;65.654;21.944;2023-03-03T05:26:24;99814.78;;;-5.63;100.00
12676;BME280;63820;65.654;21.944;2023-03-03T05:29:08;99806.31;;;-5.65;100.00
12676;BME280;63820;65.654;21.944;2023-03-03T05:31:53;99801.97;;;-5.75;100.00
12676;BME280;63820;65.654;21.944;2023-03-03T05:34:37;99802.75;;;-5.79;100.00
12676;BME280;63820;65.654;21.944;2023-03-03T05:37:21;99795.09;;;-5.85;100.00
12676;BME280;63820;65.654;21.944;2023-03-03T05:40:08;99794.22;;;-5.87;100.00
12676;BME280;63820;65.654;21.944;2023-03-03T05:42:52;99790.88;;;-5.89;100.00
12676;BME280;63820;65.654;21.944;2023-03-03T05:45:37;99789.16;;;-5.90;100.00
12676;BME280;63820;65.654;21.944;2023-03-03T05:48:21;99787.47;;;-5.90;100.00
12676;BME280;63820;65.654;21.944;2023-03-03T05:51:05;99783.25;;;-5.91;100.00
12676;BME280;63820;65.654;21.944;2023-03-03T05:53:50;99782.41;;;-5.90;100.00
12676;BME280;63820;65.654;21.944;2023-03-03T05:56:34;99774.84;;;-5.85;100.00
12676;BME280;63820;65.654;21.944;2023-03-03T05:59:18;99764.81;;;-5.76;100.00
12676;BME280;63820;65.654;21.944;2023-03-03T06:02:03;99756.50;;;-5.65;100.00
12676;BME280;63820;65.654;21.944;2023-03-03T06:04:48;99743.94;;;-5.54;100.00
12676;BME280;63820;65.654;21.944;2023-03-03T06:07:32;99750.69;;;-5.53;100.00
12676;BME280;63820;65.654;21.944;2023-03-03T06:10:16;99731.28;;;-5.54;100.00
12676;BME280;63820;65.654;21.944;2023-03-03T06:13:01;99732.16;;;-5.49;100.00
12676;BME280;63820;65.654;21.944;2023-03-03T06:15:45;99730.50;;;-5.47;100.00
12676;BME280;63820;65.654;21.944;2023-03-03T06:18:29;99720.44;;;-5.38;100.00
12676;BME280;63820;65.654;21.944;2023-03-03T06:21:13;99718.81;;;-5.30;100.00
12676;BME280;63820;65.654;21.944;2023-03-03T06:23:58;99713.78;;;-5.27;100.00
12676;BME280;63820;65.654;21.944;2023-03-03T06:26:42;99704.47;;;-5.29;100.00
12676;BME280;63820;65.654;21.944;2023-03-03T06:29:26;99696.88;;;-5.28;100.00
12676;BME280;63820;65.654;21.944;2023-03-03T06:32:11;99711.28;;;-5.17;100.00
12676;BME280;63820;65.654;21.944;2023-03-03T06:34:55;99708.78;;;-5.13;100.00
12676;BME280;63820;65.654;21.944;2023-03-03T06:37:39;99696.06;;;-5.22;100.00
12676;BME280;63820;65.654;21.944;2023-03-03T06:40:23;99692.66;;;-5.24;100.00
12676;BME280;63820;65.654;21.944;2023-03-03T06:43:07;99695.22;;;-5.16;100.00
12676;BME280;63820;65.654;21.944;2023-03-03T06:45:52;99690.22;;;-5.07;100.00
12676;BME280;63820;65.654;21.944;2023-03-03T06:48:36;99689.47;;;-4.96;100.00
12676;BME280;63820;65.654;21.944;2023-03-03T06:51:28;99681.09;;;-4.79;100.00
12676;BME280;63820;65.654;21.944;2023-03-03T06:54:18;99677.81;;;-4.63;100.00
12676;BME280;63820;65.654;21.944;2023-03-03T06:57:30;99675.41;;;-4.30;100.00
12676;BME280;63820;65.654;21.944;2023-03-03T07:00:19;99666.22;;;-3.48;100.00
12676;BME280;63820;65.654;21.944;2023-03-03T07:03:17;99655.19;;;-3.17;100.00
12676;BME280;63820;65.654;21.944;2023-03-03T07:06:13;99655.97;;;-2.90;100.00
12676;BME280;63820;65.654;21.944;2023-03-03T07:08:59;99648.19;;;-2.43;100.00
12676;BME280;63820;65.654;21.944;2023-03-03T07:11:43;99634.38;;;-2.06;100.00
12676;BME280;63820;65.654;21.944;2023-03-03T07:14:28;99627.44;;;-1.85;100.00
12676;BME280;63820;65.654;21.944;2023-03-03T07:17:16;99616.44;;;-1.90;100.00
12676;BME280;63820;65.654;21.944;2023-03-03T07:20:00;99612.22;;;-1.94;100.00
12676;BME280;63820;65.654;21.944;2023-03-03T07:22:45;99605.28;;;-1.74;100.00
12676;BME280;63820;65.654;21.944;2023-03-03T07:28:27;99591.34;;;-0.61;100.00
12676;BME280;63820;65.654;21.944;2023-03-03T07:31:24;99589.38;;;-0.40;97.95
12676;BME280;63820;65.654;21.944;2023-03-03T07:37:34;99575.91;;;1.46;84.67
12676;BME280;63820;65.654;21.944;2023-03-03T07:40:35;99573.81;;;3.03;74.28
12676;BME280;63820;65.654;21.944;2023-03-03T07:48:58;99564.13;;;7.54;52.96
12676;BME280;63820;65.654;21.944;2023-03-03T07:51:43;99560.59;;;8.46;47.02
12676;BME280;63820;65.654;21.944;2023-03-03T07:54:39;99563.78;;;8.86;47.17
12676;BME280;63820;65.654;21.944;2023-03-03T07:57:30;99550.13;;;7.40;47.63
12676;BME280;63820;65.654;21.944;2023-03-03T08:03:14;99530.53;;;7.34;46.25
12676;BME280;63820;65.654;21.944;2023-03-03T08:11:56;99513.22;;;4.58;54.09
12676;BME280;63820;65.654;21.944;2023-03-03T08:14:43;99503.16;;;4.76;53.31
12676;BME280;63820;65.654;21.944;2023-03-03T08:17:35;99498.28;;;4.43;54.21
12676;BME280;63820;65.654;21.944;2023-03-03T08:23:14;99485.50;;;5.35;53.30
12676;BME280;63820;65.654;21.944;2023-03-03T08:25:58;99491.31;;;9.63;46.38
12676;BME280;63820;65.654;21.944;2023-03-03T08:28:43;99487.31;;;12.15;40.31
12676;BME280;63820;65.654;21.944;2023-03-03T08:31:27;99474.81;;;12.96;36.63
12676;BME280;63820;65.654;21.944;2023-03-03T08:34:12;99459.97;;;14.53;35.52
12676;BME280;63820;65.654;21.944;2023-03-03T08:36:56;99480.91;;;12.46;35.88
12676;BME280;63820;65.654;21.944;2023-03-03T08:39:41;99467.59;;;12.11;37.75
12676;BME280;63820;65.654;21.944;2023-03-03T08:42:25;99467.31;;;10.92;37.46
12676;BME280;63820;65.654;21.944;2023-03-03T08:45:10;99465.63;;;9.11;41.13
12676;BME280;63820;65.654;21.944;2023-03-03T08:47:55;99460.25;;;9.46;41.13
12676;BME280;63820;65.654;21.944;2023-03-03T08:50:40;99457.09;;;12.51;37.79
12676;BME280;63820;65.654;21.944;2023-03-03T08:53:25;99459.75;;;14.56;33.79
12676;BME280;63820;65.654;21.944;2023-03-03T08:56:09;99451.19;;;14.98;32.10
12676;BME280;63820;65.654;21.944;2023-03-03T08:58:53;99458.56;;;16.02;32.14
12676;BME280;63820;65.654;21.944;2023-03-03T09:01:37;99450.13;;;16.61;30.95
12676;BME280;63820;65.654;21.944;2023-03-03T09:04:21;99446.34;;;18.42;29.11
12676;BME280;63820;65.654;21.944;2023-03-03T09:07:05;99443.41;;;19.46;27.81
12676;BME280;63820;65.654;21.944;2023-03-03T09:09:49;99440.66;;;19.20;26.24
12676;BME280;63820;65.654;21.944;2023-03-03T09:12:39;99442.56;;;19.28;26.55
12676;BME280;63820;65.654;21.944;2023-03-03T09:15:30;99436.91;;;19.68;26.11
12676;BME280;63820;65.654;21.944;2023-03-03T09:18:31;99431.16;;;16.78;29.02
12676;BME280;63820;65.654;21.944;2023-03-03T09:21:24;99428.72;;;19.16;26.95
12676;BME280;63820;65.654;21.944;2023-03-03T09:24:21;99429.16;;;18.38;26.11
12676;BME280;63820;65.654;21.944;2023-03-03T09:27:22;99419.50;;;17.90;27.18
12676;BME280;63820;65.654;21.944;2023-03-03T09:30:26;99415.34;;;15.53;29.69
12676;BME280;63820;65.654;21.944;2023-03-03T09:36:28;99417.47;;;15.16;30.35
12676;BME280;63820;65.654;21.944;2023-03-03T09:39:22;99414.38;;;14.66;31.01
12676;BME280;63820;65.654;21.944;2023-03-03T09:51:15;99407.03;;;12.46;35.49
12676;BME280;63820;65.654;21.944;2023-03-03T10:12:26;99381.31;;;7.17;44.75
12676;BME280;63820;65.654;21.944;2023-03-03T10:18:31;99381.72;;;7.27;45.34
12676;BME280;63820;65.654;21.944;2023-03-03T10:21:50;99382.72;;;6.87;45.49
12676;BME280;63820;65.654;21.944;2023-03-03T10:28:00;99375.50;;;7.12;46.10
12676;BME280;63820;65.654;21.944;2023-03-03T10:30:47;99378.44;;;7.24;44.75
12676;BME280;63820;65.654;21.944;2023-03-03T10:36:33;99363.75;;;8.10;43.93
12676;BME280;63820;65.654;21.944;2023-03-03T10:39:35;99362.41;;;9.32;41.64
12676;BME280;63820;65.654;21.944;2023-03-03T10:45:39;99356.63;;;9.11;40.83
12676;BME280;63820;65.654;21.944;2023-03-03T11:04:37;99339.00;;;12.23;36.16
12676;BME280;63820;65.654;21.944;2023-03-03T11:07:41;99332.81;;;10.52;37.63
12676;BME280;63820;65.654;21.944;2023-03-03T11:10:47;99340.75;;;8.86;41.56
12676;BME280;63820;65.654;21.944;2023-03-03T11:13:55;99344.63;;;8.13;43.08
12676;BME280;63820;65.654;21.944;2023-03-03T11:17:10;99341.72;;;9.31;42.00
12676;BME280;63820;65.654;21.944;2023-03-03T11:20:07;99339.63;;;9.81;40.80
12676;BME280;63820;65.654;21.944;2023-03-03T11:29:18;99334.03;;;13.30;34.95
12676;BME280;63820;65.654;21.944;2023-03-03T11:41:25;99341.34;;;15.18;32.05
12676;BME280;63820;65.654;21.944;2023-03-03T11:47:39;99326.34;;;13.74;34.60
12676;BME280;63820;65.654;21.944;2023-03-03T11:56:38;99325.16;;;15.13;31.55
12676;BME280;63820;65.654;21.944;2023-03-03T11:59:36;99325.16;;;13.79;33.45
12676;BME280;63820;65.654;21.944;2023-03-03T12:05:36;99321.22;;;12.90;33.88
12676;BME280;63820;65.654;21.944;2023-03-03T12:11:48;99319.53;;;11.76;35.95
12676;BME280;63820;65.654;21.944;2023-03-03T12:15:03;99315.41;;;11.47;37.32
12676;BME280;63820;65.654;21.944;2023-03-03T12:29:58;99316.19;;;9.53;40.88
12676;BME280;63820;65.654;21.944;2023-03-03T12:33:11;99310.19;;;8.11;41.58
12676;BME280;63820;65.654;21.944;2023-03-03T12:36:33;99306.88;;;7.05;45.65
12676;BME280;63820;65.654;21.944;2023-03-03T12:46:04;99301.69;;;5.11;50.60
12676;BME280;63820;65.654;21.944;2023-03-03T12:48:50;99310.22;;;5.54;49.28
12676;BME280;63820;65.654;21.944;2023-03-03T12:55:15;99298.97;;;5.35;50.20
12676;BME280;63820;65.654;21.944;2023-03-03T12:58:16;99305.16;;;5.31;49.85
12676;BME280;63820;65.654;21.944;2023-03-03T13:10:32;99297.88;;;4.54;52.27
12676;BME280;63820;65.654;21.944;2023-03-03T13:13:35;99296.75;;;4.62;52.39
12676;BME280;63820;65.654;21.944;2023-03-03T13:19:25;99293.84;;;4.47;52.98
12676;BME280;63820;65.654;21.944;2023-03-03T13:22:25;99293.47;;;4.35;53.89
12676;BME280;63820;65.654;21.944;2023-03-03T13:31:21;99284.31;;;4.04;54.12
12676;BME280;63820;65.654;21.944;2023-03-03T13:34:47;99281.72;;;3.81;54.17
12676;BME280;63820;65.654;21.944;2023-03-03T13:37:39;99293.59;;;3.60;55.40
12676;BME280;63820;65.654;21.944;2023-03-03T13:40:42;99291.06;;;3.58;54.97
12676;BME280;63820;65.654;21.944;2023-03-03T13:47:20;99288.59;;;3.55;55.10
12676;BME280;63820;65.654;21.944;2023-03-03T13:50:19;99287.09;;;3.50;55.78
12676;BME280;63820;65.654;21.944;2023-03-03T13:59:53;99279.28;;;3.26;56.82
12676;BME280;63820;65.654;21.944;2023-03-03T14:06:00;99284.22;;;3.08;57.91
12676;BME280;63820;65.654;21.944;2023-03-03T14:14:40;99284.56;;;2.69;59.27
12676;BME280;63820;65.654;21.944;2023-03-03T14:20:46;99278.50;;;2.72;58.87
12676;BME280;63820;65.654;21.944;2023-03-03T14:23:56;99277.81;;;2.67;59.19
12676;BME280;63820;65.654;21.944;2023-03-03T14:26:53;99283.31;;;2.54;60.20
12676;BME280;63820;65.654;21.944;2023-03-03T14:29:38;99276.59;;;2.50;59.84
12676;BME280;63820;65.654;21.944;2023-03-03T14:32:24;99279.69;;;2.32;61.12
12676;BME280;63820;65.654;21.944;2023-03-03T14:35:18;99271.94;;;2.34;61.57
12676;BME280;63820;65.654;21.944;2023-03-03T14:38:16;99277.25;;;2.27;61.44
12676;BME280;63820;65.654;21.944;2023-03-03T14:44:00;99281.47;;;2.01;63.61
12676;BME280;63820;65.654;21.944;2023-03-03T14:46:44;99278.28;;;1.92;64.07
12676;BME280;63820;65.654;21.944;2023-03-03T14:49:31;99277.66;;;1.84;64.75
12676;BME280;63820;65.654;21.944;2023-03-03T14:55:04;99280.44;;;1.77;66.22
12676;BME280;63820;65.654;21.944;2023-03-03T15:01:31;99290.41;;;1.55;68.08
12676;BME280;63820;65.654;21.944;2023-03-03T15:16:10;99292.81;;;1.27;85.48
12676;BME280;63820;65.654;21.944;2023-03-03T15:21:58;99302.63;;;1.10;91.67
12676;BME280;63820;65.654;21.944;2023-03-03T15:24:59;99298.75;;;0.95;94.94
12676;BME280;63820;65.654;21.944;2023-03-03T15:34:45;99305.78;;;0.85;100.00
12676;BME280;63820;65.654;21.944;2023-03-03T15:37:46;99302.63;;;0.74;100.00
12676;BME280;63820;65.654;21.944;2023-03-03T15:40:46;99306.16;;;0.69;100.00
12676;BME280;63820;65.654;21.944;2023-03-03T15:43:37;99305.63;;;0.54;100.00
12676;BME280;63820;65.654;21.944;2023-03-03T16:01:32;99307.78;;;0.32;100.00
12676;BME280;63820;65.654;21.944;2023-03-03T16:04:19;99310.56;;;0.22;100.00
12676;BME280;63820;65.654;21.944;2023-03-03T16:07:17;99309.81;;;0.17;100.00
12676;BME280;63820;65.654;21.944;2023-03-03T16:13:07;99308.28;;;0.08;100.00
12676;BME280;63820;65.654;21.944;2023-03-03T16:16:22;99316.91;;;0.03;100.00
12676;BME280;63820;65.654;21.944;2023-03-03T16:25:59;99297.31;;;0.03;100.00
12676;BME280;63820;65.654;21.944;2023-03-03T16:28:33;99299.19;;;-0.05;100.00
12676;BME280;63820;65.654;21.944;2023-03-03T16:31:23;99295.81;;;-0.06;100.00
12676;BME280;63820;65.654;21.944;2023-03-03T16:34:24;99294.22;;;-0.11;100.00
12676;BME280;63820;65.654;21.944;2023-03-03T16:37:17;99290.66;;;-0.04;100.00
12676;BME280;63820;65.654;21.944;2023-03-03T16:43:21;99294.06;;;-0.04;100.00
12676;BME280;63820;65.654;21.944;2023-03-03T16:52:13;99295.81;;;-0.06;100.00
12676;BME280;63820;65.654;21.944;2023-03-03T16:55:06;99289.94;;;-0.11;100.00
12676;BME280;63820;65.654;21.944;2023-03-03T17:04:41;99299.69;;;0.12;100.00
12676;BME280;63820;65.654;21.944;2023-03-03T17:10:29;99299.59;;;0.17;100.00
12676;BME280;63820;65.654;21.944;2023-03-03T17:13:39;99301.28;;;0.18;100.00
12676;BME280;63820;65.654;21.944;2023-03-03T17:16:34;99298.44;;;0.31;100.00
12676;BME280;63820;65.654;21.944;2023-03-03T17:19:35;99307.94;;;0.25;100.00
12676;BME280;63820;65.654;21.944;2023-03-03T17:29:00;99299.72;;;0.11;100.00
12676;BME280;63820;65.654;21.944;2023-03-03T17:35:11;99304.09;;;0.04;100.00
12676;BME280;63820;65.654;21.944;2023-03-03T17:41:14;99293.75;;;0.10;100.00
12676;BME280;63820;65.654;21.944;2023-03-03T17:44:36;99295.63;;;0.02;100.00
12676;BME280;63820;65.654;21.944;2023-03-03T18:02:08;99279.66;;;-0.08;100.00
12676;BME280;63820;65.654;21.944;2023-03-03T18:05:02;99273.72;;;-0.10;100.00
12676;BME280;63820;65.654;21.944;2023-03-03T18:11:33;99282.34;;;-0.15;100.00
12676;BME280;63820;65.654;21.944;2023-03-03T18:14:45;99286.75;;;-0.22;100.00
12676;BME280;63820;65.654;21.944;2023-03-03T18:18:01;99290.13;;;-0.20;100.00
12676;BME280;63820;65.654;21.944;2023-03-03T18:23:44;99309.03;;;-0.30;100.00
12676;BME280;63820;65.654;21.944;2023-03-03T18:26:38;99290.88;;;-0.15;100.00
12676;BME280;63820;65.654;21.944;2023-03-03T18:29:26;99304.94;;;0.05;100.00
12676;BME280;63820;65.654;21.944;2023-03-03T18:32:20;99317.72;;;0.05;100.00
12676;BME280;63820;65.654;21.944;2023-03-03T18:35:39;99323.66;;;0.07;100.00
12676;BME280;63820;65.654;21.944;2023-03-03T18:38:27;99317.00;;;-0.01;100.00
12676;BME280;63820;65.654;21.944;2023-03-03T18:41:30;99315.63;;;-0.17;100.00
12676;BME280;63820;65.654;21.944;2023-03-03T18:44:30;99325.06;;;-0.22;100.00
12676;BME280;63820;65.654;21.944;2023-03-03T18:47:14;99327.78;;;-0.31;100.00
12676;BME280;63820;65.654;21.944;2023-03-03T18:50:30;99322.81;;;-0.39;100.00
12676;BME280;63820;65.654;21.944;2023-03-03T18:53:58;99324.59;;;-0.42;100.00
12676;BME280;63820;65.654;21.944;2023-03-03T19:02:40;99336.50;;;-0.41;100.00
12676;BME280;63820;65.654;21.944;2023-03-03T19:05:47;99338.34;;;-0.49;100.00
12676;BME280;63820;65.654;21.944;2023-03-03T19:08:51;99333.16;;;-0.45;100.00
12676;BME280;63820;65.654;21.944;2023-03-03T19:11:50;99336.59;;;-0.47;100.00
12676;BME280;63820;65.654;21.944;2023-03-03T19:14:39;99328.06;;;-0.46;100.00
12676;BME280;63820;65.654;21.944;2023-03-03T19:20:12;99334.09;;;-0.50;100.00
12676;BME280;63820;65.654;21.944;2023-03-03T19:23:04;99329.75;;;-0.45;100.00
12676;BME280;63820;65.654;21.944;2023-03-03T19:36:24;99334.44;;;-0.21;100.00
12676;BME280;63820;65.654;21.944;2023-03-03T19:42:15;99336.19;;;-0.24;100.00
12676;BME280;63820;65.654;21.944;2023-03-03T19:45:12;99348.88;;;-0.20;100.00
12676;BME280;63820;65.654;21.944;2023-03-03T19:49:01;99341.28;;;-0.23;100.00
12676;BME280;63820;65.654;21.944;2023-03-03T19:51:52;99340.53;;;-0.28;100.00
12676;BME280;63820;65.654;21.944;2023-03-03T19:58:02;99346.44;;;-0.26;100.00
12676;BME280;63820;65.654;21.944;2023-03-03T20:01:10;99349.03;;;-0.27;100.00
12676;BME280;63820;65.654;21.944;2023-03-03T20:13:34;99356.13;;;-0.43;100.00
12676;BME280;63820;65.654;21.944;2023-03-03T20:16:35;99368.13;;;-0.50;100.00